sensor_id;sensor_type;location;lat;lon;timestamp;P1;durP1;ratioP1;P2;durP2;ratioP2
53867;SDS011;41577;47.470;19.080;2023-07-30T00:00:07;3.20;;;1.48;;
53867;SDS011;41577;47.470;19.080;2023-07-30T00:00:22;4.97;;;1.67;;
53867;SDS011;41577;47.470;19.080;2023-07-30T00:00:33;4.15;;;1.92;;
53867;SDS011;41577;47.470;19.080;2023-07-30T00:00:48;3.10;;;1.85;;
53867;SDS011;41577;47.470;19.080;2023-07-30T00:01:00;2.10;;;1.75;;
53867;SDS011;41577;47.470;19.080;2023-07-30T00:01:12;2.50;;;1.90;;
53867;SDS011;41577;47.470;19.080;2023-07-30T00:01:24;2.25;;;2.05;;
53867;SDS011;41577;47.470;19.080;2023-07-30T00:01:35;2.75;;;2.10;;
53867;SDS011;41577;47.470;19.080;2023-07-30T00:01:48;2.50;;;1.90;;
53867;SDS011;41577;47.470;19.080;2023-07-30T00:01:59;2.90;;;1.70;;
53867;SDS011;41577;47.470;19.080;2023-07-30T00:02:11;2.72;;;1.77;;
53867;SDS011;41577;47.470;19.080;2023-07-30T00:02:23;3.17;;;1.80;;
53867;SDS011;41577;47.470;19.080;2023-07-30T00:02:35;2.92;;;1.77;;
53867;SDS011;41577;47.470;19.080;2023-07-30T00:02:46;5.13;;;1.80;;
53867;SDS011;41577;47.470;19.080;2023-07-30T00:02:58;5.40;;;1.83;;
53867;SDS011;41577;47.470;19.080;2023-07-30T00:03:10;2.75;;;1.77;;
53867;SDS011;41577;47.470;19.080;2023-07-30T00:03:22;1.90;;;1.60;;
53867;SDS011;41577;47.470;19.080;2023-07-30T00:03:34;2.08;;;1.77;;
53867;SDS011;41577;47.470;19.080;2023-07-30T00:03:46;4.22;;;1.60;;
53867;SDS011;41577;47.470;19.080;2023-07-30T00:03:57;6.25;;;1.98;;
53867;SDS011;41577;47.470;19.080;2023-07-30T00:04:09;7.90;;;1.90;;
53867;SDS011;41577;47.470;19.080;2023-07-30T00:04:21;7.07;;;1.85;;
53867;SDS011;41577;47.470;19.080;2023-07-30T00:04:33;9.23;;;1.70;;
53867;SDS011;41577;47.470;19.080;2023-07-30T00:04:45;10.35;;;1.77;;
53867;SDS011;41577;47.470;19.080;2023-07-30T00:04:57;7.95;;;1.98;;
53867;SDS011;41577;47.470;19.080;2023-07-30T00:05:09;6.18;;;2.03;;
53867;SDS011;41577;47.470;19.080;2023-07-30T00:05:20;4.10;;;2.10;;
53867;SDS011;41577;47.470;19.080;2023-07-30T00:05:32;2.42;;;1.85;;
53867;SDS011;41577;47.470;19.080;2023-07-30T00:05:51;3.08;;;2.08;;
53867;SDS011;41577;47.470;19.080;2023-07-30T00:06:03;2.50;;;1.80;;
53867;SDS011;41577;47.470;19.080;2023-07-30T00:06:15;2.33;;;1.75;;
53867;SDS011;41577;47.470;19.080;2023-07-30T00:06:26;3.40;;;2.17;;
53867;SDS011;41577;47.470;19.080;2023-07-30T00:06:38;4.10;;;2.20;;
53867;SDS011;41577;47.470;19.080;2023-07-30T00:06:50;6.38;;;2.25;;
53867;SDS011;41577;47.470;19.080;2023-07-30T00:07:03;6.38;;;2.15;;
53867;SDS011;41577;47.470;19.080;2023-07-30T00:07:16;5.40;;;2.10;;
53867;SDS011;41577;47.470;19.080;2023-07-30T00:07:27;4.50;;;2.10;;
53867;SDS011;41577;47.470;19.080;2023-07-30T00:07:39;2.08;;;1.85;;
53867;SDS011;41577;47.470;19.080;2023-07-30T00:07:51;2.72;;;1.70;;
53867;SDS011;41577;47.470;19.080;2023-07-30T00:08:03;3.00;;;1.98;;
53867;SDS011;41577;47.470;19.080;2023-07-30T00:08:15;2.63;;;2.03;;
53867;SDS011;41577;47.470;19.080;2023-07-30T00:08:27;2.67;;;2.00;;
53867;SDS011;41577;47.470;19.080;2023-07-30T00:08:38;3.60;;;2.05;;
53867;SDS011;41577;47.470;19.080;2023-07-30T00:08:50;3.47;;;1.90;;
53867;SDS011;41577;47.470;19.080;2023-07-30T00:09:02;3.88;;;1.85;;
53867;SDS011;41577;47.470;19.080;2023-07-30T00:09:14;3.58;;;1.63;;
53867;SDS011;41577;47.470;19.080;2023-07-30T00:09:26;3.90;;;1.67;;
53867;SDS011;41577;47.470;19.080;2023-07-30T00:09:38;2.90;;;1.60;;
53867;SDS011;41577;47.470;19.080;2023-07-30T00:09:50;2.50;;;1.58;;
53867;SDS011;41577;47.470;19.080;2023-07-30T00:10:02;2.15;;;1.50;;
53867;SDS011;41577;47.470;19.080;2023-07-30T00:10:14;1.77;;;1.60;;
53867;SDS011;41577;47.470;19.080;2023-07-30T00:10:26;2.00;;;1.65;;
53867;SDS011;41577;47.470;19.080;2023-07-30T00:10:38;3.28;;;1.60;;
53867;SDS011;41577;47.470;19.080;2023-07-30T00:10:49;7.00;;;1.83;;
53867;SDS011;41577;47.470;19.080;2023-07-30T00:11:01;7.70;;;2.08;;
53867;SDS011;41577;47.470;19.080;2023-07-30T00:11:13;6.82;;;2.25;;
53867;SDS011;41577;47.470;19.080;2023-07-30T00:11:25;2.95;;;2.00;;
53867;SDS011;41577;47.470;19.080;2023-07-30T00:11:36;4.15;;;2.05;;
53867;SDS011;41577;47.470;19.080;2023-07-30T00:11:49;6.13;;;2.08;;
53867;SDS011;41577;47.470;19.080;2023-07-30T00:12:00;7.13;;;2.10;;
53867;SDS011;41577;47.470;19.080;2023-07-30T00:12:12;3.53;;;1.95;;
53867;SDS011;41577;47.470;19.080;2023-07-30T00:12:24;2.67;;;1.60;;
53867;SDS011;41577;47.470;19.080;2023-07-30T00:12:36;2.33;;;1.55;;
53867;SDS011;41577;47.470;19.080;2023-07-30T00:12:47;2.45;;;1.65;;
53867;SDS011;41577;47.470;19.080;2023-07-30T00:12:59;2.53;;;1.67;;
53867;SDS011;41577;47.470;19.080;2023-07-30T00:13:11;3.83;;;1.63;;
53867;SDS011;41577;47.470;19.080;2023-07-30T00:13:23;4.22;;;1.67;;
53867;SDS011;41577;47.470;19.080;2023-07-30T00:13:35;4.63;;;1.88;;
53867;SDS011;41577;47.470;19.080;2023-07-30T00:13:46;2.58;;;1.90;;
53867;SDS011;41577;47.470;19.080;2023-07-30T00:13:58;2.25;;;1.83;;
53867;SDS011;41577;47.470;19.080;2023-07-30T00:14:10;1.75;;;1.65;;
53867;SDS011;41577;47.470;19.080;2023-07-30T00:14:22;1.63;;;1.52;;
53867;SDS011;41577;47.470;19.080;2023-07-30T00:14:33;2.60;;;1.67;;
53867;SDS011;41577;47.470;19.080;2023-07-30T00:14:45;3.10;;;1.75;;
53867;SDS011;41577;47.470;19.080;2023-07-30T00:14:57;5.00;;;1.67;;
53867;SDS011;41577;47.470;19.080;2023-07-30T00:15:09;4.45;;;1.70;;
53867;SDS011;41577;47.470;19.080;2023-07-30T00:15:21;2.33;;;1.90;;
53867;SDS011;41577;47.470;19.080;2023-07-30T00:15:33;1.95;;;1.75;;
53867;SDS011;41577;47.470;19.080;2023-07-30T00:15:45;2.20;;;1.90;;
53867;SDS011;41577;47.470;19.080;2023-07-30T00:15:57;2.60;;;1.90;;
53867;SDS011;41577;47.470;19.080;2023-07-30T00:16:09;3.20;;;2.08;;
53867;SDS011;41577;47.470;19.080;2023-07-30T00:16:22;2.55;;;2.10;;
53867;SDS011;41577;47.470;19.080;2023-07-30T00:16:33;4.13;;;1.98;;
53867;SDS011;41577;47.470;19.080;2023-07-30T00:16:45;5.43;;;1.73;;
53867;SDS011;41577;47.470;19.080;2023-07-30T00:16:57;3.60;;;1.80;;
53867;SDS011;41577;47.470;19.080;2023-07-30T00:17:09;3.90;;;2.30;;
53867;SDS011;41577;47.470;19.080;2023-07-30T00:17:20;3.83;;;2.13;;
53867;SDS011;41577;47.470;19.080;2023-07-30T00:17:32;3.58;;;1.73;;
53867;SDS011;41577;47.470;19.080;2023-07-30T00:17:44;2.88;;;1.52;;
53867;SDS011;41577;47.470;19.080;2023-07-30T00:17:56;2.95;;;1.90;;
53867;SDS011;41577;47.470;19.080;2023-07-30T00:18:07;4.72;;;2.03;;
53867;SDS011;41577;47.470;19.080;2023-07-30T00:18:19;4.72;;;1.98;;
53867;SDS011;41577;47.470;19.080;2023-07-30T00:18:31;6.25;;;2.15;;
53867;SDS011;41577;47.470;19.080;2023-07-30T00:18:43;5.75;;;2.08;;
53867;SDS011;41577;47.470;19.080;2023-07-30T00:18:55;7.20;;;1.85;;
53867;SDS011;41577;47.470;19.080;2023-07-30T00:19:07;6.13;;;1.77;;
53867;SDS011;41577;47.470;19.080;2023-07-30T00:19:18;4.25;;;1.80;;
53867;SDS011;41577;47.470;19.080;2023-07-30T00:19:31;2.40;;;1.50;;
53867;SDS011;41577;47.470;19.080;2023-07-30T00:19:42;1.70;;;1.50;;
53867;SDS011;41577;47.470;19.080;2023-07-30T00:19:54;1.85;;;1.45;;
53867;SDS011;41577;47.470;19.080;2023-07-30T00:20:07;2.15;;;1.50;;
53867;SDS011;41577;47.470;19.080;2023-07-30T00:20:20;2.30;;;1.55;;
53867;SDS011;41577;47.470;19.080;2023-07-30T00:20:33;4.75;;;1.90;;
53867;SDS011;41577;47.470;19.080;2023-07-30T00:20:45;4.85;;;1.92;;
53867;SDS011;41577;47.470;19.080;2023-07-30T00:21:00;3.47;;;1.63;;
53867;SDS011;41577;47.470;19.080;2023-07-30T00:21:11;3.15;;;1.55;;
53867;SDS011;41577;47.470;19.080;2023-07-30T00:21:23;4.13;;;1.90;;
53867;SDS011;41577;47.470;19.080;2023-07-30T00:21:35;4.75;;;2.10;;
53867;SDS011;41577;47.470;19.080;2023-07-30T00:21:47;3.88;;;2.13;;
53867;SDS011;41577;47.470;19.080;2023-07-30T00:21:59;4.15;;;2.00;;
53867;SDS011;41577;47.470;19.080;2023-07-30T00:22:12;2.30;;;1.70;;
53867;SDS011;41577;47.470;19.080;2023-07-30T00:22:24;1.73;;;1.60;;
53867;SDS011;41577;47.470;19.080;2023-07-30T00:22:35;2.70;;;1.55;;
53867;SDS011;41577;47.470;19.080;2023-07-30T00:22:47;3.28;;;1.77;;
53867;SDS011;41577;47.470;19.080;2023-07-30T00:22:59;2.95;;;1.88;;
53867;SDS011;41577;47.470;19.080;2023-07-30T00:23:11;3.55;;;1.90;;
53867;SDS011;41577;47.470;19.080;2023-07-30T00:23:22;3.72;;;2.00;;
53867;SDS011;41577;47.470;19.080;2023-07-30T00:23:34;2.83;;;1.88;;
53867;SDS011;41577;47.470;19.080;2023-07-30T00:23:46;5.25;;;1.88;;
53867;SDS011;41577;47.470;19.080;2023-07-30T00:23:57;6.45;;;1.70;;
53867;SDS011;41577;47.470;19.080;2023-07-30T00:24:09;6.60;;;1.50;;
53867;SDS011;41577;47.470;19.080;2023-07-30T00:24:21;3.97;;;1.45;;
53867;SDS011;41577;47.470;19.080;2023-07-30T00:24:33;3.45;;;1.63;;
53867;SDS011;41577;47.470;19.080;2023-07-30T00:24:44;3.22;;;1.70;;
53867;SDS011;41577;47.470;19.080;2023-07-30T00:24:56;2.42;;;1.65;;
53867;SDS011;41577;47.470;19.080;2023-07-30T00:25:08;6.18;;;1.88;;
53867;SDS011;41577;47.470;19.080;2023-07-30T00:25:20;6.32;;;1.63;;
53867;SDS011;41577;47.470;19.080;2023-07-30T00:25:31;5.00;;;1.50;;
53867;SDS011;41577;47.470;19.080;2023-07-30T00:25:43;2.90;;;1.30;;
53867;SDS011;41577;47.470;19.080;2023-07-30T00:25:55;2.40;;;1.30;;
53867;SDS011;41577;47.470;19.080;2023-07-30T00:26:07;2.10;;;1.45;;
53867;SDS011;41577;47.470;19.080;2023-07-30T00:26:18;5.35;;;1.40;;
53867;SDS011;41577;47.470;19.080;2023-07-30T00:26:30;6.80;;;1.45;;
53867;SDS011;41577;47.470;19.080;2023-07-30T00:26:42;8.27;;;1.88;;
53867;SDS011;41577;47.470;19.080;2023-07-30T00:26:54;5.55;;;1.95;;
53867;SDS011;41577;47.470;19.080;2023-07-30T00:27:06;3.08;;;1.80;;
53867;SDS011;41577;47.470;19.080;2023-07-30T00:27:18;2.25;;;1.50;;
53867;SDS011;41577;47.470;19.080;2023-07-30T00:27:34;1.80;;;1.60;;
53867;SDS011;41577;47.470;19.080;2023-07-30T00:27:46;2.65;;;1.70;;
53867;SDS011;41577;47.470;19.080;2023-07-30T00:27:57;2.38;;;1.42;;
53867;SDS011;41577;47.470;19.080;2023-07-30T00:28:09;1.98;;;1.35;;
53867;SDS011;41577;47.470;19.080;2023-07-30T00:28:21;2.35;;;1.42;;
53867;SDS011;41577;47.470;19.080;2023-07-30T00:28:33;2.55;;;1.58;;
53867;SDS011;41577;47.470;19.080;2023-07-30T00:28:45;2.55;;;1.50;;
53867;SDS011;41577;47.470;19.080;2023-07-30T00:28:57;4.80;;;1.52;;
53867;SDS011;41577;47.470;19.080;2023-07-30T00:29:08;6.13;;;1.27;;
53867;SDS011;41577;47.470;19.080;2023-07-30T00:29:21;5.63;;;1.17;;
53867;SDS011;41577;47.470;19.080;2023-07-30T00:29:33;1.52;;;1.17;;
53867;SDS011;41577;47.470;19.080;2023-07-30T00:29:44;1.42;;;1.20;;
53867;SDS011;41577;47.470;19.080;2023-07-30T00:29:56;1.98;;;1.40;;
53867;SDS011;41577;47.470;19.080;2023-07-30T00:30:08;2.25;;;1.27;;
53867;SDS011;41577;47.470;19.080;2023-07-30T00:30:21;1.80;;;1.05;;
53867;SDS011;41577;47.470;19.080;2023-07-30T00:30:33;2.15;;;1.20;;
53867;SDS011;41577;47.470;19.080;2023-07-30T00:30:45;1.95;;;1.20;;
53867;SDS011;41577;47.470;19.080;2023-07-30T00:30:57;1.95;;;1.33;;
53867;SDS011;41577;47.470;19.080;2023-07-30T00:31:09;1.50;;;1.40;;
53867;SDS011;41577;47.470;19.080;2023-07-30T00:31:21;2.60;;;1.58;;
53867;SDS011;41577;47.470;19.080;2023-07-30T00:31:34;2.70;;;1.40;;
53867;SDS011;41577;47.470;19.080;2023-07-30T00:31:46;1.85;;;1.30;;
53867;SDS011;41577;47.470;19.080;2023-07-30T00:31:58;2.63;;;1.63;;
53867;SDS011;41577;47.470;19.080;2023-07-30T00:32:10;7.07;;;1.45;;
53867;SDS011;41577;47.470;19.080;2023-07-30T00:32:22;6.90;;;1.60;;
53867;SDS011;41577;47.470;19.080;2023-07-30T00:32:34;1.50;;;1.40;;
53867;SDS011;41577;47.470;19.080;2023-07-30T00:32:46;2.05;;;1.40;;
53867;SDS011;41577;47.470;19.080;2023-07-30T00:32:58;3.10;;;1.40;;
53867;SDS011;41577;47.470;19.080;2023-07-30T00:33:09;3.35;;;1.30;;
53867;SDS011;41577;47.470;19.080;2023-07-30T00:33:21;3.15;;;1.65;;
53867;SDS011;41577;47.470;19.080;2023-07-30T00:33:33;6.70;;;1.70;;
53867;SDS011;41577;47.470;19.080;2023-07-30T00:33:47;5.70;;;1.38;;
53867;SDS011;41577;47.470;19.080;2023-07-30T00:33:59;3.75;;;1.08;;
53867;SDS011;41577;47.470;19.080;2023-07-30T00:34:10;1.67;;;0.93;;
53867;SDS011;41577;47.470;19.080;2023-07-30T00:34:22;1.80;;;1.10;;
53867;SDS011;41577;47.470;19.080;2023-07-30T00:34:34;1.63;;;1.23;;
53867;SDS011;41577;47.470;19.080;2023-07-30T00:34:46;1.20;;;1.10;;
53867;SDS011;41577;47.470;19.080;2023-07-30T00:34:57;1.05;;;0.95;;
53867;SDS011;41577;47.470;19.080;2023-07-30T00:35:09;1.23;;;1.05;;
53867;SDS011;41577;47.470;19.080;2023-07-30T00:35:21;1.38;;;1.27;;
53867;SDS011;41577;47.470;19.080;2023-07-30T00:35:33;1.50;;;1.40;;
53867;SDS011;41577;47.470;19.080;2023-07-30T00:35:45;1.55;;;1.42;;
53867;SDS011;41577;47.470;19.080;2023-07-30T00:35:57;1.63;;;1.38;;
53867;SDS011;41577;47.470;19.080;2023-07-30T00:36:08;1.52;;;1.30;;
53867;SDS011;41577;47.470;19.080;2023-07-30T00:36:22;1.02;;;1.02;;
53867;SDS011;41577;47.470;19.080;2023-07-30T00:36:34;1.15;;;1.05;;
53867;SDS011;41577;47.470;19.080;2023-07-30T00:36:46;1.20;;;0.95;;
53867;SDS011;41577;47.470;19.080;2023-07-30T00:36:57;1.38;;;0.93;;
53867;SDS011;41577;47.470;19.080;2023-07-30T00:37:09;1.35;;;0.95;;
53867;SDS011;41577;47.470;19.080;2023-07-30T00:37:22;1.27;;;1.00;;
53867;SDS011;41577;47.470;19.080;2023-07-30T00:37:34;1.30;;;1.20;;
53867;SDS011;41577;47.470;19.080;2023-07-30T00:37:46;1.63;;;1.20;;
53867;SDS011;41577;47.470;19.080;2023-07-30T00:37:58;2.53;;;1.13;;
53867;SDS011;41577;47.470;19.080;2023-07-30T00:38:09;3.45;;;1.13;;
53867;SDS011;41577;47.470;19.080;2023-07-30T00:38:21;4.15;;;1.30;;
53867;SDS011;41577;47.470;19.080;2023-07-30T00:38:33;2.70;;;1.15;;
53867;SDS011;41577;47.470;19.080;2023-07-30T00:38:45;2.10;;;1.00;;
53867;SDS011;41577;47.470;19.080;2023-07-30T00:38:56;1.00;;;0.95;;
53867;SDS011;41577;47.470;19.080;2023-07-30T00:39:08;1.23;;;1.13;;
53867;SDS011;41577;47.470;19.080;2023-07-30T00:39:20;1.20;;;1.10;;
53867;SDS011;41577;47.470;19.080;2023-07-30T00:39:32;1.15;;;1.00;;
53867;SDS011;41577;47.470;19.080;2023-07-30T00:39:43;4.00;;;1.38;;
53867;SDS011;41577;47.470;19.080;2023-07-30T00:39:55;4.30;;;1.38;;
53867;SDS011;41577;47.470;19.080;2023-07-30T00:40:07;2.83;;;1.30;;
53867;SDS011;41577;47.470;19.080;2023-07-30T00:40:20;1.38;;;1.20;;
53867;SDS011;41577;47.470;19.080;2023-07-30T00:40:32;1.75;;;1.20;;
53867;SDS011;41577;47.470;19.080;2023-07-30T00:40:45;2.22;;;1.20;;
53867;SDS011;41577;47.470;19.080;2023-07-30T00:40:56;1.55;;;1.10;;
53867;SDS011;41577;47.470;19.080;2023-07-30T00:41:08;1.65;;;1.15;;
53867;SDS011;41577;47.470;19.080;2023-07-30T00:41:20;2.95;;;1.20;;
53867;SDS011;41577;47.470;19.080;2023-07-30T00:41:32;2.40;;;1.10;;
53867;SDS011;41577;47.470;19.080;2023-07-30T00:41:44;1.13;;;1.02;;
53867;SDS011;41577;47.470;19.080;2023-07-30T00:41:55;1.20;;;1.10;;
53867;SDS011;41577;47.470;19.080;2023-07-30T00:42:07;1.30;;;1.10;;
53867;SDS011;41577;47.470;19.080;2023-07-30T00:42:19;1.92;;;1.15;;
53867;SDS011;41577;47.470;19.080;2023-07-30T00:42:31;1.70;;;1.08;;
53867;SDS011;41577;47.470;19.080;2023-07-30T00:42:42;1.60;;;1.20;;
53867;SDS011;41577;47.470;19.080;2023-07-30T00:42:54;1.45;;;1.15;;
53867;SDS011;41577;47.470;19.080;2023-07-30T00:43:06;2.30;;;1.38;;
53867;SDS011;41577;47.470;19.080;2023-07-30T00:43:18;2.50;;;1.30;;
53867;SDS011;41577;47.470;19.080;2023-07-30T00:43:30;2.75;;;1.35;;
53867;SDS011;41577;47.470;19.080;2023-07-30T00:43:42;2.72;;;1.27;;
53867;SDS011;41577;47.470;19.080;2023-07-30T00:43:54;2.72;;;1.15;;
53867;SDS011;41577;47.470;19.080;2023-07-30T00:44:05;5.10;;;1.20;;
53867;SDS011;41577;47.470;19.080;2023-07-30T00:44:19;3.65;;;1.05;;
53867;SDS011;41577;47.470;19.080;2023-07-30T00:44:31;1.02;;;0.90;;
53867;SDS011;41577;47.470;19.080;2023-07-30T00:44:42;2.20;;;0.90;;
53867;SDS011;41577;47.470;19.080;2023-07-30T00:44:54;2.00;;;0.80;;
53867;SDS011;41577;47.470;19.080;2023-07-30T00:45:08;0.90;;;0.90;;
53867;SDS011;41577;47.470;19.080;2023-07-30T00:45:21;0.90;;;0.90;;
53867;SDS011;41577;47.470;19.080;2023-07-30T00:45:33;2.35;;;1.15;;
53867;SDS011;41577;47.470;19.080;2023-07-30T00:45:46;2.90;;;1.05;;
53867;SDS011;41577;47.470;19.080;2023-07-30T00:45:58;2.42;;;1.05;;
53867;SDS011;41577;47.470;19.080;2023-07-30T00:46:10;1.05;;;0.90;;
53867;SDS011;41577;47.470;19.080;2023-07-30T00:46:22;1.17;;;1.10;;
53867;SDS011;41577;47.470;19.080;2023-07-30T00:46:34;1.35;;;1.17;;
53867;SDS011;41577;47.470;19.080;2023-07-30T00:46:47;1.50;;;1.08;;
53867;SDS011;41577;47.470;19.080;2023-07-30T00:46:59;5.03;;;0.98;;
53867;SDS011;41577;47.470;19.080;2023-07-30T00:47:11;5.07;;;1.00;;
53867;SDS011;41577;47.470;19.080;2023-07-30T00:47:24;5.20;;;1.10;;
53867;SDS011;41577;47.470;19.080;2023-07-30T00:47:38;1.35;;;0.90;;
53867;SDS011;41577;47.470;19.080;2023-07-30T00:47:50;1.17;;;0.80;;
53867;SDS011;41577;47.470;19.080;2023-07-30T00:48:02;1.05;;;0.88;;
53867;SDS011;41577;47.470;19.080;2023-07-30T00:48:14;1.45;;;0.90;;
53867;SDS011;41577;47.470;19.080;2023-07-30T00:48:26;1.55;;;0.95;;
53867;SDS011;41577;47.470;19.080;2023-07-30T00:48:38;1.33;;;0.85;;
53867;SDS011;41577;47.470;19.080;2023-07-30T00:48:51;1.17;;;0.80;;
53867;SDS011;41577;47.470;19.080;2023-07-30T00:49:03;2.03;;;0.90;;
53867;SDS011;41577;47.470;19.080;2023-07-30T00:49:15;2.60;;;1.10;;
53867;SDS011;41577;47.470;19.080;2023-07-30T00:49:27;2.40;;;1.10;;
53867;SDS011;41577;47.470;19.080;2023-07-30T00:49:39;4.50;;;1.05;;
53867;SDS011;41577;47.470;19.080;2023-07-30T00:49:51;4.30;;;1.08;;
53867;SDS011;41577;47.470;19.080;2023-07-30T00:50:04;3.90;;;1.05;;
53867;SDS011;41577;47.470;19.080;2023-07-30T00:50:17;1.48;;;1.33;;
53867;SDS011;41577;47.470;19.080;2023-07-30T00:50:29;3.35;;;1.55;;
53867;SDS011;41577;47.470;19.080;2023-07-30T00:50:41;3.65;;;1.80;;
53867;SDS011;41577;47.470;19.080;2023-07-30T00:50:53;3.05;;;2.08;;
53867;SDS011;41577;47.470;19.080;2023-07-30T00:51:06;6.07;;;3.00;;
53867;SDS011;41577;47.470;19.080;2023-07-30T00:51:19;7.25;;;3.53;;
53867;SDS011;41577;47.470;19.080;2023-07-30T00:51:31;6.50;;;3.47;;
53867;SDS011;41577;47.470;19.080;2023-07-30T00:51:45;2.55;;;2.08;;
53867;SDS011;41577;47.470;19.080;2023-07-30T00:51:57;1.70;;;1.60;;
53867;SDS011;41577;47.470;19.080;2023-07-30T00:52:09;1.40;;;1.30;;
53867;SDS011;41577;47.470;19.080;2023-07-30T00:52:23;1.70;;;1.40;;
53867;SDS011;41577;47.470;19.080;2023-07-30T00:52:37;1.67;;;1.40;;
53867;SDS011;41577;47.470;19.080;2023-07-30T00:52:50;1.33;;;1.23;;
53867;SDS011;41577;47.470;19.080;2023-07-30T00:53:02;1.30;;;1.20;;
53867;SDS011;41577;47.470;19.080;2023-07-30T00:53:14;1.40;;;1.25;;
53867;SDS011;41577;47.470;19.080;2023-07-30T00:53:27;1.17;;;1.08;;
53867;SDS011;41577;47.470;19.080;2023-07-30T00:53:39;1.15;;;0.98;;
53867;SDS011;41577;47.470;19.080;2023-07-30T00:53:51;1.95;;;1.15;;
53867;SDS011;41577;47.470;19.080;2023-07-30T00:54:03;1.70;;;1.10;;
53867;SDS011;41577;47.470;19.080;2023-07-30T00:54:15;1.65;;;1.20;;
53867;SDS011;41577;47.470;19.080;2023-07-30T00:54:26;1.00;;;0.90;;
53867;SDS011;41577;47.470;19.080;2023-07-30T00:54:38;0.55;;;0.52;;
53867;SDS011;41577;47.470;19.080;2023-07-30T00:54:51;0.55;;;0.55;;
53867;SDS011;41577;47.470;19.080;2023-07-30T00:55:05;0.93;;;0.82;;
53867;SDS011;41577;47.470;19.080;2023-07-30T00:55:19;1.15;;;0.98;;
53867;SDS011;41577;47.470;19.080;2023-07-30T00:55:31;1.10;;;1.00;;
53867;SDS011;41577;47.470;19.080;2023-07-30T00:55:43;0.85;;;0.80;;
53867;SDS011;41577;47.470;19.080;2023-07-30T00:55:56;0.63;;;0.63;;
53867;SDS011;41577;47.470;19.080;2023-07-30T00:56:09;0.93;;;0.70;;
53867;SDS011;41577;47.470;19.080;2023-07-30T00:56:21;1.02;;;0.70;;
53867;SDS011;41577;47.470;19.080;2023-07-30T00:56:32;0.98;;;0.85;;
53867;SDS011;41577;47.470;19.080;2023-07-30T00:56:47;0.80;;;0.80;;
53867;SDS011;41577;47.470;19.080;2023-07-30T00:57:01;1.00;;;0.90;;
53867;SDS011;41577;47.470;19.080;2023-07-30T00:57:14;1.27;;;1.00;;
53867;SDS011;41577;47.470;19.080;2023-07-30T00:57:26;1.10;;;1.00;;
53867;SDS011;41577;47.470;19.080;2023-07-30T00:57:38;1.00;;;0.90;;
53867;SDS011;41577;47.470;19.080;2023-07-30T00:57:51;0.95;;;0.90;;
53867;SDS011;41577;47.470;19.080;2023-07-30T00:58:03;1.20;;;1.00;;
53867;SDS011;41577;47.470;19.080;2023-07-30T00:58:15;2.70;;;0.95;;
53867;SDS011;41577;47.470;19.080;2023-07-30T00:58:28;2.70;;;0.80;;
53867;SDS011;41577;47.470;19.080;2023-07-30T00:58:42;1.30;;;0.90;;
53867;SDS011;41577;47.470;19.080;2023-07-30T00:58:55;2.28;;;0.93;;
53867;SDS011;41577;47.470;19.080;2023-07-30T00:59:07;3.22;;;1.02;;
53867;SDS011;41577;47.470;19.080;2023-07-30T00:59:19;3.63;;;1.15;;
53867;SDS011;41577;47.470;19.080;2023-07-30T00:59:32;1.30;;;1.08;;
53867;SDS011;41577;47.470;19.080;2023-07-30T00:59:43;1.08;;;0.98;;
53867;SDS011;41577;47.470;19.080;2023-07-30T00:59:56;1.08;;;0.90;;
53867;SDS011;41577;47.470;19.080;2023-07-30T01:00:08;1.73;;;1.00;;
53867;SDS011;41577;47.470;19.080;2023-07-30T01:00:21;1.63;;;0.90;;
53867;SDS011;41577;47.470;19.080;2023-07-30T01:00:34;1.33;;;0.80;;
53867;SDS011;41577;47.470;19.080;2023-07-30T01:00:46;1.55;;;0.82;;
53867;SDS011;41577;47.470;19.080;2023-07-30T01:00:58;1.10;;;0.88;;
53867;SDS011;41577;47.470;19.080;2023-07-30T01:01:10;1.40;;;0.88;;
53867;SDS011;41577;47.470;19.080;2023-07-30T01:01:23;1.35;;;0.77;;
53867;SDS011;41577;47.470;19.080;2023-07-30T01:01:34;1.70;;;0.80;;
53867;SDS011;41577;47.470;19.080;2023-07-30T01:01:49;2.05;;;0.88;;
53867;SDS011;41577;47.470;19.080;2023-07-30T01:02:02;1.77;;;0.90;;
53867;SDS011;41577;47.470;19.080;2023-07-30T01:02:15;1.15;;;0.90;;
53867;SDS011;41577;47.470;19.080;2023-07-30T01:02:27;0.93;;;0.82;;
53867;SDS011;41577;47.470;19.080;2023-07-30T01:02:39;1.40;;;0.65;;
53867;SDS011;41577;47.470;19.080;2023-07-30T01:02:51;1.88;;;0.98;;
53867;SDS011;41577;47.470;19.080;2023-07-30T01:03:03;1.88;;;1.13;;
53867;SDS011;41577;47.470;19.080;2023-07-30T01:03:15;5.57;;;1.38;;
53867;SDS011;41577;47.470;19.080;2023-07-30T01:03:27;5.05;;;1.17;;
53867;SDS011;41577;47.470;19.080;2023-07-30T01:03:39;2.13;;;0.90;;
53867;SDS011;41577;47.470;19.080;2023-07-30T01:03:51;1.60;;;0.93;;
53867;SDS011;41577;47.470;19.080;2023-07-30T01:04:03;1.10;;;0.90;;
53867;SDS011;41577;47.470;19.080;2023-07-30T01:04:15;1.42;;;0.98;;
53867;SDS011;41577;47.470;19.080;2023-07-30T01:04:27;1.42;;;1.00;;
53867;SDS011;41577;47.470;19.080;2023-07-30T01:04:39;1.25;;;1.00;;
53867;SDS011;41577;47.470;19.080;2023-07-30T01:04:52;1.30;;;0.90;;
53867;SDS011;41577;47.470;19.080;2023-07-30T01:05:05;1.45;;;0.90;;
53867;SDS011;41577;47.470;19.080;2023-07-30T01:05:17;1.17;;;0.90;;
53867;SDS011;41577;47.470;19.080;2023-07-30T01:05:29;0.80;;;0.80;;
53867;SDS011;41577;47.470;19.080;2023-07-30T01:05:42;1.08;;;0.90;;
53867;SDS011;41577;47.470;19.080;2023-07-30T01:05:55;1.20;;;0.90;;
53867;SDS011;41577;47.470;19.080;2023-07-30T01:06:07;1.05;;;0.77;;
53867;SDS011;41577;47.470;19.080;2023-07-30T01:06:21;0.68;;;0.68;;
53867;SDS011;41577;47.470;19.080;2023-07-30T01:06:34;0.80;;;0.80;;
53867;SDS011;41577;47.470;19.080;2023-07-30T01:06:45;0.93;;;0.88;;
53867;SDS011;41577;47.470;19.080;2023-07-30T01:06:57;1.10;;;1.00;;
53867;SDS011;41577;47.470;19.080;2023-07-30T01:07:10;1.58;;;0.95;;
53867;SDS011;41577;47.470;19.080;2023-07-30T01:07:24;1.88;;;0.93;;
53867;SDS011;41577;47.470;19.080;2023-07-30T01:07:36;1.38;;;1.00;;
53867;SDS011;41577;47.470;19.080;2023-07-30T01:07:48;1.38;;;0.98;;
53867;SDS011;41577;47.470;19.080;2023-07-30T01:07:59;1.20;;;0.90;;
53867;SDS011;41577;47.470;19.080;2023-07-30T01:08:11;0.95;;;0.90;;
53867;SDS011;41577;47.470;19.080;2023-07-30T01:08:26;2.45;;;0.90;;
53867;SDS011;41577;47.470;19.080;2023-07-30T01:08:38;4.95;;;0.90;;
53867;SDS011;41577;47.470;19.080;2023-07-30T01:08:50;6.32;;;1.15;;
53867;SDS011;41577;47.470;19.080;2023-07-30T01:09:02;3.10;;;1.15;;
53867;SDS011;41577;47.470;19.080;2023-07-30T01:09:14;1.92;;;1.00;;
53867;SDS011;41577;47.470;19.080;2023-07-30T01:09:26;1.40;;;0.77;;
53867;SDS011;41577;47.470;19.080;2023-07-30T01:09:38;0.90;;;0.85;;
53867;SDS011;41577;47.470;19.080;2023-07-30T01:09:50;1.00;;;0.90;;
53867;SDS011;41577;47.470;19.080;2023-07-30T01:10:02;1.02;;;0.90;;
53867;SDS011;41577;47.470;19.080;2023-07-30T01:10:14;2.55;;;0.93;;
53867;SDS011;41577;47.470;19.080;2023-07-30T01:10:27;3.40;;;1.00;;
53867;SDS011;41577;47.470;19.080;2023-07-30T01:10:41;2.47;;;0.93;;
53867;SDS011;41577;47.470;19.080;2023-07-30T01:10:54;2.42;;;0.82;;
53867;SDS011;41577;47.470;19.080;2023-07-30T01:11:06;2.95;;;1.00;;
53867;SDS011;41577;47.470;19.080;2023-07-30T01:11:19;2.40;;;1.17;;
53867;SDS011;41577;47.470;19.080;2023-07-30T01:11:31;2.80;;;1.60;;
53867;SDS011;41577;47.470;19.080;2023-07-30T01:11:44;2.67;;;1.55;;
53867;SDS011;41577;47.470;19.080;2023-07-30T01:11:58;1.35;;;0.90;;
53867;SDS011;41577;47.470;19.080;2023-07-30T01:12:11;1.42;;;1.00;;